createdAt,value
2018-09-20T00:04:34.554Z,9.60
2018-09-20T00:09:37.945Z,9.90
2018-09-20T00:14:41.464Z,10.70
2018-09-20T00:19:44.882Z,9.77
2018-09-20T00:24:48.251Z,11.00
2018-09-20T00:29:52.022Z,11.67
2018-09-20T00:34:55.408Z,11.03
2018-09-20T00:39:58.776Z,12.53
2018-09-20T00:45:02.119Z,10.87
2018-09-20T00:50:05.458Z,11.00
2018-09-20T00:55:08.807Z,11.40
2018-09-20T01:00:12.916Z,13.33
2018-09-20T01:05:16.304Z,11.00
2018-09-20T01:10:19.783Z,11.23
2018-09-20T01:15:23.245Z,10.40
2018-09-20T01:20:27.314Z,10.63
2018-09-20T01:25:30.903Z,10.67
2018-09-20T01:30:34.319Z,11.50
2018-09-20T01:35:37.652Z,10.77
2018-09-20T01:40:40.987Z,11.17
2018-09-20T01:45:44.375Z,11.03
2018-09-20T01:50:47.773Z,10.87
2018-09-20T01:55:51.128Z,11.37
2018-09-20T02:00:54.501Z,11.73
2018-09-20T02:05:57.830Z,11.47
2018-09-20T02:11:01.265Z,10.80
2018-09-20T02:16:04.612Z,11.60
2018-09-20T02:21:07.987Z,11.63
2018-09-20T02:26:12.032Z,12.17
2018-09-20T02:31:15.467Z,11.93
2018-09-20T02:36:18.810Z,11.40
2018-09-20T02:41:22.307Z,12.03
2018-09-20T02:46:25.708Z,11.63
2018-09-20T02:51:29.921Z,12.80
2018-09-20T02:56:33.277Z,11.00
2018-09-20T03:01:36.684Z,13.60
2018-09-20T03:06:40.032Z,12.37
2018-09-20T03:11:43.506Z,12.43
2018-09-20T03:16:46.900Z,10.93
2018-09-20T03:21:50.532Z,12.23
2018-09-20T03:26:53.894Z,11.77
2018-09-20T03:31:57.287Z,11.53
2018-09-20T03:37:00.806Z,11.87
2018-09-20T03:42:04.757Z,12.57
2018-09-20T03:47:08.412Z,11.80
2018-09-20T03:52:11.758Z,12.00
2018-09-20T03:57:15.183Z,12.53
2018-09-20T04:02:18.594Z,12.17
2018-09-20T04:07:22.116Z,12.00
2018-09-20T04:12:25.453Z,12.60
2018-09-20T04:17:28.866Z,12.50
2018-09-20T04:22:32.434Z,11.43
2018-09-20T04:27:35.839Z,12.50
2018-09-20T04:32:39.231Z,13.70
2018-09-20T04:37:43.091Z,11.70
2018-09-20T04:42:46.487Z,12.83
2018-09-20T04:47:50.148Z,12.93
2018-09-20T04:52:53.519Z,12.60
2018-09-20T04:57:56.919Z,15.83
2018-09-20T05:03:00.391Z,13.47
2018-09-20T05:08:03.730Z,13.67
2018-09-20T05:13:07.110Z,15.20
2018-09-20T05:18:10.515Z,15.63
2018-09-20T05:23:13.998Z,17.47
2018-09-20T05:28:17.386Z,12.33
2018-09-20T05:33:21.005Z,17.43
2018-09-20T05:38:24.378Z,14.73
2018-09-20T05:43:27.823Z,16.47
2018-09-20T05:48:31.159Z,13.97
2018-09-20T05:53:34.527Z,14.00
2018-09-20T05:58:38.065Z,13.47
2018-09-20T06:03:41.411Z,14.90
2018-09-20T06:08:44.760Z,15.53
2018-09-20T06:13:48.264Z,15.23
2018-09-20T06:18:51.723Z,15.80
2018-09-20T06:23:55.331Z,18.80
2018-09-20T06:28:58.678Z,16.23
2018-09-20T06:34:02.118Z,13.40
2018-09-20T06:39:08.716Z,21.90
2018-09-20T06:44:12.237Z,16.07
2018-09-20T06:49:15.857Z,12.33
2018-09-20T06:54:19.315Z,14.67
2018-09-20T06:59:22.651Z,15.50
2018-09-20T07:04:26.058Z,15.67
2018-09-20T07:09:29.444Z,16.30
2018-09-20T07:14:32.815Z,15.13
2018-09-20T07:19:36.185Z,15.07
2018-09-20T07:24:39.571Z,20.27
2018-09-20T07:29:43.011Z,12.30
2018-09-20T07:34:46.387Z,12.65
2018-09-20T07:39:49.752Z,9.03
2018-09-20T07:44:53.099Z,9.67
2018-09-20T07:49:56.500Z,10.55
2018-09-20T07:54:59.989Z,10.37
2018-09-20T08:00:03.699Z,9.37
2018-09-20T08:05:07.067Z,12.10
2018-09-20T08:10:10.437Z,20.97
2018-09-20T08:15:13.794Z,12.90
2018-09-20T08:20:17.166Z,10.38
2018-09-20T08:25:20.888Z,9.90
2018-09-20T08:30:24.270Z,13.13
2018-09-20T08:35:27.622Z,25.73
2018-09-20T08:40:31.003Z,10.15
2018-09-20T08:45:34.415Z,9.75
2018-09-20T08:50:37.818Z,8.40
2018-09-20T08:55:41.191Z,6.85
2018-09-20T09:00:44.558Z,12.50
2018-09-20T09:05:47.985Z,11.70
2018-09-20T09:10:51.359Z,7.05
2018-09-20T09:15:54.914Z,9.35
2018-09-20T09:20:58.295Z,8.20
2018-09-20T09:26:01.696Z,8.13
2018-09-20T09:31:05.128Z,5.83
2018-09-20T09:36:08.526Z,8.35
2018-09-20T09:41:11.965Z,7.12
2018-09-20T09:46:15.460Z,8.23
2018-09-20T09:51:18.881Z,6.25
2018-09-20T09:56:22.412Z,7.85
2018-09-20T10:01:25.844Z,7.75
2018-09-20T10:06:29.274Z,9.10
2018-09-20T10:11:32.675Z,7.30
2018-09-20T10:16:36.257Z,7.65
2018-09-20T10:21:39.634Z,6.90
2018-09-20T10:26:43.032Z,5.12
2018-09-20T10:31:46.424Z,9.13
2018-09-20T10:36:49.804Z,14.55
2018-09-20T10:41:53.255Z,13.60
2018-09-20T10:46:56.619Z,10.25
2018-09-20T10:52:00.984Z,7.10
2018-09-20T10:57:04.360Z,5.62
2018-09-20T11:02:07.726Z,6.25
2018-09-20T11:07:11.108Z,5.75
2018-09-20T11:12:14.491Z,5.03
2018-09-20T11:17:18.046Z,5.83
2018-09-20T11:22:21.594Z,5.95
2018-09-20T11:27:25.106Z,6.70
2018-09-20T11:32:28.478Z,4.83
2018-09-20T11:37:31.834Z,5.72
2018-09-20T11:42:35.200Z,4.92
2018-09-20T11:47:38.587Z,5.25
2018-09-20T11:52:41.925Z,6.47
2018-09-20T11:57:45.275Z,5.83
2018-09-20T12:02:49.291Z,6.83
2018-09-20T12:07:52.647Z,7.15
2018-09-20T12:12:56.832Z,7.65
2018-09-20T12:18:00.149Z,4.80
2018-09-20T12:23:03.560Z,4.78
2018-09-20T12:28:07.255Z,5.10
2018-09-20T12:33:10.633Z,5.80
2018-09-20T12:38:14.198Z,5.12
2018-09-20T12:43:17.829Z,8.13
2018-09-20T12:48:21.175Z,4.67
2018-09-20T12:53:24.519Z,6.22
2018-09-20T12:58:33.363Z,9.30
2018-09-20T13:03:36.945Z,9.15
2018-09-20T13:08:40.332Z,7.65
2018-09-20T13:13:43.778Z,7.10
2018-09-20T13:18:47.147Z,8.23
2018-09-20T13:23:50.482Z,11.45
2018-09-20T13:28:53.840Z,11.85
2018-09-20T13:33:57.291Z,7.55
2018-09-20T13:39:00.725Z,5.47
2018-09-20T13:44:04.104Z,4.05
2018-09-20T13:49:07.572Z,6.53
2018-09-20T13:54:10.969Z,5.83
2018-09-20T13:59:14.368Z,6.15
2018-09-20T14:04:17.877Z,4.47
2018-09-20T14:09:21.865Z,6.25
2018-09-20T14:14:25.995Z,4.80
2018-09-20T14:19:29.380Z,7.22
2018-09-20T14:24:32.783Z,4.92
2018-09-20T14:29:36.260Z,4.70
2018-09-20T14:34:39.833Z,5.60
2018-09-20T14:39:43.167Z,5.08
2018-09-20T14:44:46.528Z,4.87
2018-09-20T14:49:49.896Z,4.75
2018-09-20T14:54:53.284Z,5.72
2018-09-20T14:59:56.709Z,6.92
2018-09-20T15:05:00.221Z,4.87
2018-09-20T15:10:03.607Z,4.90
2018-09-20T15:15:07.185Z,6.83
2018-09-20T15:20:10.677Z,5.40
2018-09-20T15:25:14.207Z,7.90
2018-09-20T15:30:17.815Z,6.30
2018-09-20T15:35:21.322Z,6.30
2018-09-20T15:40:24.744Z,7.78
2018-09-20T15:45:28.217Z,5.33
2018-09-20T15:50:31.669Z,5.28
2018-09-20T15:55:35.195Z,4.92
2018-09-20T16:00:38.708Z,6.87
2018-09-20T16:05:42.147Z,4.83
2018-09-20T16:10:45.590Z,5.78
2018-09-20T16:15:48.945Z,6.12
2018-09-20T16:20:53.186Z,7.55
2018-09-20T16:25:56.591Z,4.78
2018-09-20T16:31:14.724Z,5.30
2018-09-20T16:36:31.325Z,5.10
2018-09-20T16:41:38.614Z,4.75
2018-09-20T16:46:42.003Z,4.62
2018-09-20T16:51:45.391Z,6.72
2018-09-20T16:56:49.533Z,5.85
2018-09-20T17:01:52.904Z,5.08
2018-09-20T17:06:56.360Z,4.53
2018-09-20T17:11:59.737Z,5.80
2018-09-20T17:17:03.284Z,5.65
2018-09-20T17:22:06.683Z,5.50
2018-09-20T17:27:10.027Z,5.70
2018-09-20T17:32:13.395Z,5.28
2018-09-20T17:37:18.170Z,7.20
2018-09-20T17:42:23.026Z,8.20
2018-09-20T17:47:26.423Z,10.78
2018-09-20T17:52:30.388Z,9.63
2018-09-20T17:57:35.035Z,6.12
2018-09-20T18:02:39.450Z,6.37
2018-09-20T18:07:42.862Z,5.83
2018-09-20T18:12:47.209Z,6.35
2018-09-20T18:17:50.654Z,5.72
2018-09-20T18:22:54.261Z,6.33
2018-09-20T18:27:57.664Z,9.43
2018-09-20T18:33:01.112Z,10.95
2018-09-20T18:38:04.708Z,7.50
2018-09-20T18:43:08.120Z,8.60
2018-09-20T18:48:11.459Z,9.28
2018-09-20T18:53:40.953Z,6.90
2018-09-20T18:58:44.582Z,8.13
2018-09-20T19:03:48.740Z,9.18
2018-09-20T19:08:52.853Z,6.85
2018-09-20T19:13:56.253Z,12.20
2018-09-20T19:18:59.969Z,6.35
2018-09-20T19:24:03.478Z,7.55
2018-09-20T19:29:06.891Z,7.90
2018-09-20T19:34:10.289Z,6.85
2018-09-20T19:39:13.721Z,5.90
2018-09-20T19:44:17.178Z,11.28
2018-09-20T19:49:21.397Z,7.83
2018-09-20T19:54:25.000Z,8.70
2018-09-20T19:59:29.165Z,8.55
2018-09-20T20:04:32.660Z,6.78
2018-09-20T20:09:36.018Z,9.45
2018-09-20T20:14:39.351Z,6.62
2018-09-20T20:19:42.751Z,9.83
2018-09-20T20:24:46.103Z,7.80
2018-09-20T20:29:49.528Z,6.30
2018-09-20T20:34:52.928Z,7.15
2018-09-20T20:39:57.002Z,8.10
2018-09-20T20:45:00.399Z,8.03
2018-09-20T20:50:03.798Z,7.30
2018-09-20T20:55:08.826Z,9.70
2018-09-20T21:00:12.235Z,6.93
2018-09-20T21:05:15.588Z,7.90
2018-09-20T21:10:19.235Z,8.78
2018-09-20T21:15:22.616Z,7.47
2018-09-20T21:20:26.129Z,6.10
2018-09-20T21:25:29.467Z,8.03
2018-09-20T21:30:32.799Z,7.45
2018-09-20T21:35:36.138Z,6.30
2018-09-20T21:40:39.543Z,6.62
2018-09-20T21:45:42.923Z,6.25
2018-09-20T21:50:46.499Z,7.05
2018-09-20T21:55:49.915Z,6.92
2018-09-20T22:00:57.455Z,7.03
2018-09-20T22:06:00.908Z,8.03
2018-09-20T22:11:04.661Z,6.73
2018-09-20T22:16:08.024Z,6.83
2018-09-20T22:21:11.597Z,6.33
2018-09-20T22:26:15.056Z,6.72
2018-09-20T22:31:19.090Z,7.35
2018-09-20T22:36:22.476Z,6.40
2018-09-20T22:41:25.790Z,6.23
2018-09-20T22:46:30.451Z,5.80
2018-09-20T22:51:33.834Z,6.47
2018-09-20T22:56:37.198Z,6.73
2018-09-20T23:01:41.730Z,6.53
2018-09-20T23:06:45.111Z,6.60
2018-09-20T23:11:49.129Z,6.70
2018-09-20T23:16:52.832Z,6.97
2018-09-20T23:21:57.656Z,7.83
2018-09-20T23:27:01.036Z,6.67
2018-09-20T23:32:04.471Z,7.55
2018-09-20T23:37:07.912Z,7.07
2018-09-20T23:42:11.294Z,7.93
2018-09-20T23:47:15.681Z,6.13
2018-09-20T23:52:20.017Z,10.97
2018-09-20T23:57:23.533Z,7.03
